Map

Track Data

SID SEASON NUMBER BASIN SUBBASIN NAME ISO_TIME NATURE LAT LON WMO_WIND WMO_PRES WMO_AGENCY TRACK_TYPE DIST2LAND LANDFALL IFLAG USA_AGENCY USA_ATCF_ID USA_LAT USA_LON USA_RECORD USA_STATUS USA_WIND USA_PRES USA_SSHS USA_R34_NE USA_R34_SE USA_R34_SW USA_R34_NW USA_R50_NE USA_R50_SE USA_R50_SW USA_R50_NW USA_R64_NE USA_R64_SE USA_R64_SW USA_R64_NW USA_POCI USA_ROCI USA_RMW USA_EYE TOKYO_LAT TOKYO_LON TOKYO_GRADE TOKYO_WIND TOKYO_PRES TOKYO_R50_DIR TOKYO_R50_LONG TOKYO_R50_SHORT TOKYO_R30_DIR TOKYO_R30_LONG TOKYO_R30_SHORT TOKYO_LAND CMA_LAT CMA_LON CMA_CAT CMA_WIND CMA_PRES HKO_LAT HKO_LON HKO_CAT HKO_WIND HKO_PRES NEWDELHI_LAT NEWDELHI_LON NEWDELHI_GRADE NEWDELHI_WIND NEWDELHI_PRES NEWDELHI_CI NEWDELHI_DP NEWDELHI_POCI REUNION_LAT REUNION_LON REUNION_TYPE REUNION_WIND REUNION_PRES REUNION_TNUM REUNION_CI REUNION_RMW REUNION_R34_NE REUNION_R34_SE REUNION_R34_SW REUNION_R34_NW REUNION_R50_NE REUNION_R50_SE REUNION_R50_SW REUNION_R50_NW REUNION_R64_NE REUNION_R64_SE REUNION_R64_SW REUNION_R64_NW BOM_LAT BOM_LON BOM_TYPE BOM_WIND BOM_PRES BOM_TNUM BOM_CI BOM_RMW BOM_R34_NE BOM_R34_SE BOM_R34_SW BOM_R34_NW BOM_R50_NE BOM_R50_SE BOM_R50_SW BOM_R50_NW BOM_R64_NE BOM_R64_SE BOM_R64_SW BOM_R64_NW BOM_ROCI BOM_POCI BOM_EYE BOM_POS_METHOD BOM_PRES_METHOD NADI_LAT NADI_LON NADI_CAT NADI_WIND NADI_PRES WELLINGTON_LAT WELLINGTON_LON WELLINGTON_WIND WELLINGTON_PRES DS824_LAT DS824_LON DS824_STAGE DS824_WIND DS824_PRES TD9636_LAT TD9636_LON TD9636_STAGE TD9636_WIND TD9636_PRES TD9635_LAT TD9635_LON TD9635_WIND TD9635_PRES TD9635_ROCI NEUMANN_LAT NEUMANN_LON NEUMANN_CLASS NEUMANN_WIND NEUMANN_PRES MLC_LAT MLC_LON MLC_CLASS MLC_WIND MLC_PRES USA_GUST BOM_GUST BOM_GUST_PER REUNION_GUST REUNION_GUST_PER USA_SEAHGT USA_SEARAD_NE USA_SEARAD_SE USA_SEARAD_SW USA_SEARAD_NW STORM_SPEED STORM_DIR
1957264N32294 1957 63 NA NA FRIEDA 1957-09-20 12:00:00 TS 31.7000 -65.8000 25 hurdat_atl main 1004 1004 O_____________ hurdat_atl AL071957 31.7000 -65.8000 TD 25 -1 6 175
1957264N32294 1957 63 NA NA FRIEDA 1957-09-20 15:00:00 TS 31.4050 -65.7873 main 1021 1021 P_____________ AL071957 31.4050 -65.7873 TD 25 -1 7 0
1957264N32294 1957 63 NA NA FRIEDA 1957-09-20 18:00:00 TS 31.0000 -65.8000 25 hurdat_atl main 1045 1045 O_____________ hurdat_atl AL071957 31.0000 -65.8000 TD 25 -1 10 183
1957264N32294 1957 63 NA NA FRIEDA 1957-09-20 21:00:00 TS 30.4100 -65.8503 main 1075 1075 P_____________ AL071957 30.4100 -65.8503 TD 25 -1 13 184
1957264N32294 1957 63 NA NA FRIEDA 1957-09-21 00:00:00 TS 29.7000 -65.9000 25 hurdat_atl main 1124 1124 O_____________ hurdat_atl AL071957 29.7000 -65.9000 TD 25 -1 15 182
1957264N32294 1957 63 NA NA FRIEDA 1957-09-21 03:00:00 TS 28.9275 -65.9150 main 1117 1047 P_____________ AL071957 28.9275 -65.9150 TD 27 -1 15 0
1957264N32294 1957 63 NA NA FRIEDA 1957-09-21 06:00:00 TS 28.2000 -65.9000 30 hurdat_atl main 1047 986 O_____________ hurdat_atl AL071957 28.2000 -65.9000 TD 30 -1 14 178
1957264N32294 1957 63 NA NA FRIEDA 1957-09-21 09:00:00 TS 27.5650 -65.8723 main 986 951 P_____________ AL071957 27.5650 -65.8723 TD 30 -1 10 175
1957264N32294 1957 63 NA NA FRIEDA 1957-09-21 12:00:00 TS 27.2000 -65.8000 30 1005 hurdat_atl main 951 951 O_____________ hurdat_atl AL071957 27.2000 -65.8000 TD 30 1005 -1 4 147
1957264N32294 1957 63 NA NA FRIEDA 1957-09-21 15:00:00 TS 27.2526 -65.6428 main 970 970 P_____________ AL071957 27.2526 -65.6428 TD 30 1004 -1 4 41
1957264N32294 1957 63 NA NA FRIEDA 1957-09-21 18:00:00 TS 27.5000 -65.5000 30 1004 hurdat_atl main 994 994 O_____________ hurdat_atl AL071957 27.5000 -65.5000 TD 30 1004 -1 5 27
1957264N32294 1957 63 NA NA FRIEDA 1957-09-21 21:00:00 TS 27.6945 -65.3872 main 1018 1018 P_____________ AL071957 27.6945 -65.3872 TD 32 1003 -1 3 0
1957264N32294 1957 63 NA NA FRIEDA 1957-09-22 00:00:00 TS 27.8000 -65.5000 35 hurdat_atl main 1024 992 I_____________ hurdat_atl AL071957 27.8000 -65.5000 TS 35 1002 0 5 274
1957264N32294 1957 63 NA NA FRIEDA 1957-09-22 03:00:00 TS 27.7326 -65.9871 main 992 944 P_____________ AL071957 27.7326 -65.9871 TS 37 1001 0 11 254
1957264N32294 1957 63 NA NA FRIEDA 1957-09-22 06:00:00 TS 27.5000 -66.7000 40 1001 hurdat_atl main 944 869 O_____________ hurdat_atl AL071957 27.5000 -66.7000 TS 40 1001 0 14 243
1957264N32294 1957 63 NA NA FRIEDA 1957-09-22 09:00:00 TS 27.0773 -67.4215 main 869 784 P_____________ AL071957 27.0773 -67.4215 TS 40 0 16 239
1957264N32294 1957 63 NA NA FRIEDA 1957-09-22 12:00:00 TS 26.7000 -68.2000 40 hurdat_atl main 784 727 O_____________ hurdat_atl AL071957 26.7000 -68.2000 TS 40 0 15 253
1957264N32294 1957 63 NA NA FRIEDA 1957-09-22 15:00:00 TS 26.6331 -69.0588 main 721 695 P_____________ AL071957 26.6331 -69.0588 TS 42 0 14 270
1957264N32294 1957 63 NA NA FRIEDA 1957-09-22 18:00:00 TS 26.7000 -69.8000 45 hurdat_atl main 695 677 O_____________ hurdat_atl AL071957 26.7000 -69.8000 TS 45 0 10 276
1957264N32294 1957 63 NA NA FRIEDA 1957-09-22 21:00:00 TS 26.7416 -70.2100 main 677 675 P_____________ AL071957 26.7416 -70.2100 TS 45 0 6 279
1957264N32294 1957 63 NA NA FRIEDA 1957-09-23 00:00:00 TS 26.8000 -70.5000 45 hurdat_atl main 675 661 O_____________ hurdat_atl AL071957 26.8000 -70.5000 TS 45 0 6 278
1957264N32294 1957 63 NA NA FRIEDA 1957-09-23 03:00:00 TS 26.8276 -70.9152 main 661 654 P_____________ AL071957 26.8276 -70.9152 TS 45 0 7 278
1957264N32294 1957 63 NA NA FRIEDA 1957-09-23 06:00:00 TS 26.9000 -71.3000 45 hurdat_atl main 659 657 O_____________ hurdat_atl AL071957 26.9000 -71.3000 TS 45 0 6 291
1957264N32294 1957 63 NA NA FRIEDA 1957-09-23 09:00:00 TS 27.0548 -71.5801 main 674 660 P_____________ AL071957 27.0548 -71.5801 TS 45 0 6 312
1957264N32294 1957 63 NA NA FRIEDA 1957-09-23 12:00:00 TS 27.3000 -71.8000 45 1004 hurdat_atl main 664 654 O_____________ hurdat_atl AL071957 27.3000 -71.8000 TS 45 1004 0 7 324
1957264N32294 1957 63 NA NA FRIEDA 1957-09-23 15:00:00 TS 27.6050 -72.0373 main 659 650 P_____________ AL071957 27.6050 -72.0373 TS 45 0 8 333
1957264N32294 1957 63 NA NA FRIEDA 1957-09-23 18:00:00 TS 28.0000 -72.2000 45 hurdat_atl main 661 661 O_____________ hurdat_atl AL071957 28.0000 -72.2000 TS 45 0 9 348
1957264N32294 1957 63 NA NA FRIEDA 1957-09-23 21:00:00 TS 28.4475 -72.2450 main 683 683 P_____________ AL071957 28.4475 -72.2450 TS 45 0 10 1
1957264N32294 1957 63 NA NA FRIEDA 1957-09-24 00:00:00 TS 29.0000 -72.2000 45 hurdat_atl main 720 688 O_____________ hurdat_atl AL071957 29.0000 -72.2000 TS 45 0 13 3
1957264N32294 1957 63 NA NA FRIEDA 1957-09-24 03:00:00 TS 29.6922 -72.1741 main 688 637 P_____________ AL071957 29.6922 -72.1741 TS 45 0 14 7
1957264N32294 1957 63 NA NA FRIEDA 1957-09-24 06:00:00 TS 30.4000 -72.0000 45 hurdat_atl main 637 615 O_____________ hurdat_atl AL071957 30.4000 -72.0000 TS 45 0 14 22
1957264N32294 1957 63 NA NA FRIEDA 1957-09-24 09:00:00 TS 31.0028 -71.5608 main 615 613 P_____________ AL071957 31.0028 -71.5608 TS 45 0 14 38
1957264N32294 1957 63 NA NA FRIEDA 1957-09-24 12:00:00 TS 31.5000 -71.0000 45 1002 hurdat_atl main 621 621 O_____________ hurdat_atl AL071957 31.5000 -71.0000 TS 45 1002 0 12 46
1957264N32294 1957 63 NA NA FRIEDA 1957-09-24 15:00:00 TS 31.8568 -70.5357 main 632 632 P_____________ AL071957 31.8568 -70.5357 TS 47 1000 0 11 51
1957264N32294 1957 63 NA NA FRIEDA 1957-09-24 18:00:00 TS 32.2000 -70.0000 50 hurdat_atl main 645 645 I_____________ hurdat_atl AL071957 32.2000 -70.0000 TS 50 998 0 13 52
1957264N32294 1957 63 NA NA FRIEDA 1957-09-24 21:00:00 TS 32.6621 -69.3167 main 665 665 P_____________ AL071957 32.6621 -69.3167 TS 55 996 0 16 52
1957264N32294 1957 63 NA NA FRIEDA 1957-09-25 00:00:00 TS 33.2000 -68.5000 60 995 hurdat_atl main 702 702 O_____________ hurdat_atl AL071957 33.2000 -68.5000 TS 60 995 0 18 52
1957264N32294 1957 63 NA NA FRIEDA 1957-09-25 03:00:00 TS 33.7696 -67.5938 main 753 753 P_____________ AL071957 33.7696 -67.5938 TS 65 1 20 53
1957264N32294 1957 63 NA NA FRIEDA 1957-09-25 06:00:00 TS 34.4000 -66.6000 70 hurdat_atl main 822 822 O_____________ hurdat_atl AL071957 34.4000 -66.6000 HU 70 1 21 52
1957264N32294 1957 63 NA NA FRIEDA 1957-09-25 09:00:00 TS 35.0699 -65.5489 main 832 805 P_____________ AL071957 35.0699 -65.5489 HU 72 1 22 51
1957264N32294 1957 63 NA NA FRIEDA 1957-09-25 12:00:00 TS 35.8000 -64.5000 75 hurdat_atl main 810 781 O_____________ hurdat_atl AL071957 35.8000 -64.5000 HU 75 1 22 47
1957264N32294 1957 63 NA NA FRIEDA 1957-09-25 15:00:00 TS 36.5990 -63.5265 main 782 713 P_____________ AL071957 36.5990 -63.5265 HU 75 1 22 44
1957264N32294 1957 63 NA NA FRIEDA 1957-09-25 18:00:00 TS 37.4000 -62.6000 75 975 hurdat_atl main 715 672 O_____________ hurdat_atl AL071957 37.4000 -62.6000 HU 75 975 1 21 44
1957264N32294 1957 63 NA NA FRIEDA 1957-09-25 21:00:00 TS 38.1141 -61.6900 main 672 643 P_____________ AL071957 38.1141 -61.6900 HU 75 975 1 20 45
1957264N32294 1957 63 NA NA FRIEDA 1957-09-26 00:00:00 TS 38.8000 -60.8000 75 976 hurdat_atl main 643 624 O_____________ hurdat_atl AL071957 38.8000 -60.8000 HU 75 976 1 20 45
1957264N32294 1957 63 NA NA FRIEDA 1957-09-26 03:00:00 TS 39.5143 -59.8988 main 624 579 P_____________ AL071957 39.5143 -59.8988 HU 72 1 20 45
1957264N32294 1957 63 NA NA FRIEDA 1957-09-26 06:00:00 ET 40.2000 -59.0000 70 hurdat_atl main 581 546 O_____________ hurdat_atl AL071957 40.2000 -59.0000 EX 70 -4 19 47
1957264N32294 1957 63 NA NA FRIEDA 1957-09-26 09:00:00 ET 40.8149 -58.0686 main 546 526 P_____________ AL071957 40.8149 -58.0686 EX 67 -4 18 49
1957264N32294 1957 63 NA NA FRIEDA 1957-09-26 12:00:00 ET 41.4000 -57.2000 65 hurdat_atl main 526 507 O_____________ hurdat_atl AL071957 41.4000 -57.2000 EX 65 -4 17 46
1957264N32294 1957 63 NA NA FRIEDA 1957-09-26 15:00:00 ET 41.9841 -56.4601 main 507 466 P_____________ AL071957 41.9841 -56.4601 EX 62 -4 16 41
1957264N32294 1957 63 NA NA FRIEDA 1957-09-26 18:00:00 ET 42.6000 -55.8000 60 hurdat_atl main 466 398 O_____________ hurdat_atl AL071957 42.6000 -55.8000 EX 60 -4 16 38
1957264N32294 1957 63 NA NA FRIEDA 1957-09-26 21:00:00 ET 43.2549 -55.1187 main 385 297 P_____________ AL071957 43.2549 -55.1187 EX 57 -4 17 34
1957264N32294 1957 63 NA NA FRIEDA 1957-09-27 00:00:00 ET 44.0000 -54.5000 55 hurdat_atl main 297 202 O_____________ hurdat_atl AL071957 44.0000 -54.5000 EX 55 -4 18 27
1957264N32294 1957 63 NA NA FRIEDA 1957-09-27 03:00:00 ET 44.8395 -53.9750 main 202 99 P_____________ AL071957 44.8395 -53.9750 EX 52 -4 19 22
1957264N32294 1957 63 NA NA FRIEDA 1957-09-27 06:00:00 ET 45.8000 -53.5000 50 hurdat_atl main 88 0 O_____________ hurdat_atl AL071957 45.8000 -53.5000 EX 50 -4 21 18
1957264N32294 1957 63 NA NA FRIEDA 1957-09-27 09:00:00 ET 46.8706 -53.0125 main 0 0 P_____________ AL071957 46.8706 -53.0125 EX 50 -4 23 17
1957264N32294 1957 63 NA NA FRIEDA 1957-09-27 12:00:00 ET 48.0000 -52.5000 50 hurdat_atl main 24 O_____________ hurdat_atl AL071957 48.0000 -52.5000 EX 50 -4 24 17

About IBTrACS Database

This database is a web-friendly format of International Best Track Archive for Climate Stewardship (IBTrACS), a global best track data archive curated by NOAA dating back to 1842.

Updated: 2021-10-19